createdAt,value
2022-12-03T00:01:29.291Z,13.48
2022-12-03T00:04:00.569Z,14.98
2022-12-03T00:06:34.382Z,16.27
2022-12-03T00:09:04.118Z,17.77
2022-12-03T00:11:34.739Z,22.50
2022-12-03T00:14:03.840Z,19.17
2022-12-03T00:16:32.861Z,13.70
2022-12-03T00:19:01.801Z,11.32
2022-12-03T00:21:31.578Z,21.13
2022-12-03T00:24:00.606Z,21.42
2022-12-03T00:26:29.689Z,13.73
2022-12-03T00:29:00.080Z,17.48
2022-12-03T00:31:29.156Z,11.75
2022-12-03T00:33:58.130Z,19.52
2022-12-03T00:36:27.204Z,19.52
2022-12-03T00:38:56.358Z,21.13
2022-12-03T00:41:25.453Z,18.13
2022-12-03T00:43:57.524Z,18.27
2022-12-03T00:46:28.422Z,23.15
2022-12-03T00:48:57.375Z,11.88
2022-12-03T00:51:26.609Z,16.38
2022-12-03T00:53:55.669Z,17.98
2022-12-03T00:56:25.085Z,19.27
2022-12-03T00:58:54.216Z,18.83
2022-12-03T01:01:23.310Z,17.30
2022-12-03T01:03:53.711Z,19.92
2022-12-03T01:06:22.857Z,14.10
2022-12-03T01:08:51.825Z,18.95
2022-12-03T01:11:38.720Z,21.27
2022-12-03T01:14:09.529Z,14.00
2022-12-03T01:16:39.293Z,13.30
2022-12-03T01:19:15.884Z,15.98
2022-12-03T01:21:46.305Z,14.70
2022-12-03T01:24:15.905Z,17.45
2022-12-03T01:26:44.961Z,9.90
2022-12-03T01:29:14.105Z,15.75
2022-12-03T01:32:00.221Z,7.93
2022-12-03T01:34:30.634Z,16.50
2022-12-03T01:37:00.105Z,20.95
2022-12-03T01:39:29.209Z,10.00
2022-12-03T01:41:59.316Z,12.93
2022-12-03T01:44:31.294Z,13.10
2022-12-03T01:47:02.718Z,11.68
2022-12-03T01:49:40.559Z,13.43
2022-12-03T01:52:13.483Z,10.57
2022-12-03T01:54:45.733Z,15.65
2022-12-03T01:57:22.665Z,11.52
2022-12-03T01:59:53.313Z,15.88
2022-12-03T02:02:25.301Z,15.27
2022-12-03T02:04:56.529Z,15.13
2022-12-03T02:07:30.477Z,25.55
2022-12-03T02:10:02.283Z,16.50
2022-12-03T02:12:41.100Z,20.95
2022-12-03T02:15:11.562Z,13.23
2022-12-03T02:17:40.954Z,16.73
2022-12-03T02:20:13.736Z,17.15
2022-12-03T02:22:49.852Z,8.32
2022-12-03T02:25:24.376Z,11.13
2022-12-03T02:27:55.249Z,14.68
2022-12-03T02:30:26.490Z,6.22
2022-12-03T02:32:56.146Z,12.23
2022-12-03T02:35:27.621Z,7.93
2022-12-03T02:38:00.384Z,17.92
2022-12-03T02:40:35.041Z,10.82
2022-12-03T02:43:04.918Z,12.98
2022-12-03T02:45:37.823Z,18.80
2022-12-03T02:48:10.064Z,17.10
2022-12-03T02:50:42.453Z,10.45
2022-12-03T02:53:15.488Z,15.18
2022-12-03T02:55:46.696Z,16.48
2022-12-03T02:58:17.156Z,9.25
2022-12-03T03:00:47.283Z,21.45
2022-12-03T03:03:18.174Z,12.25
2022-12-03T03:05:48.217Z,12.45
2022-12-03T03:08:19.190Z,8.32
2022-12-03T03:10:50.570Z,16.52
2022-12-03T03:13:21.271Z,14.95
2022-12-03T03:15:50.310Z,8.73
2022-12-03T03:18:19.969Z,13.82
2022-12-03T03:20:49.082Z,14.80
2022-12-03T03:23:20.327Z,12.45
2022-12-03T03:25:55.428Z,15.02
2022-12-03T03:28:25.577Z,12.32
2022-12-03T03:30:55.097Z,16.90
2022-12-03T03:33:24.378Z,7.65
2022-12-03T03:35:54.444Z,16.30
2022-12-03T03:38:25.135Z,12.70
2022-12-03T03:40:55.697Z,14.48
2022-12-03T03:43:25.638Z,15.65
2022-12-03T03:45:55.811Z,14.32
2022-12-03T03:48:25.114Z,14.68
2022-12-03T03:50:54.736Z,11.88
2022-12-03T03:53:25.844Z,14.93
2022-12-03T03:55:56.287Z,13.52
2022-12-03T03:58:25.344Z,8.02
2022-12-03T04:00:54.815Z,20.48
2022-12-03T04:03:23.956Z,16.83
2022-12-03T04:05:52.924Z,11.05
2022-12-03T04:08:22.010Z,15.85
2022-12-03T04:11:08.327Z,12.25
2022-12-03T04:13:38.700Z,16.48
2022-12-03T04:16:08.222Z,17.38
2022-12-03T04:18:46.239Z,11.40
2022-12-03T04:21:34.471Z,10.60
2022-12-03T04:24:03.746Z,10.25
2022-12-03T04:26:49.895Z,12.80
2022-12-03T04:29:22.060Z,18.23
2022-12-03T04:32:04.872Z,12.15
2022-12-03T04:34:51.281Z,23.38
2022-12-03T04:37:20.606Z,20.50
2022-12-03T04:39:49.683Z,17.20
2022-12-03T04:42:18.729Z,11.35
2022-12-03T04:44:49.186Z,14.43
2022-12-03T04:47:20.022Z,10.43
2022-12-03T04:49:50.592Z,13.38
2022-12-03T04:52:20.980Z,13.75
2022-12-03T04:54:50.179Z,10.07
2022-12-03T04:57:19.235Z,12.85
2022-12-03T04:59:49.675Z,12.52
2022-12-03T05:02:18.952Z,12.95
2022-12-03T05:04:48.012Z,17.38
2022-12-03T05:07:17.080Z,15.98
2022-12-03T05:09:46.082Z,14.75
2022-12-03T05:12:15.067Z,13.02
2022-12-03T05:14:44.021Z,15.43
2022-12-03T05:17:14.653Z,18.67
2022-12-03T05:20:00.689Z,14.70
2022-12-03T05:22:30.293Z,14.10
2022-12-03T05:24:59.331Z,16.00
2022-12-03T05:27:32.225Z,15.77
2022-12-03T05:30:01.186Z,18.33
2022-12-03T05:32:32.445Z,17.63
2022-12-03T05:35:01.888Z,17.48
2022-12-03T05:37:35.406Z,20.73
2022-12-03T05:40:05.156Z,16.73
2022-12-03T05:42:51.370Z,16.77
2022-12-03T05:45:20.921Z,15.20
2022-12-03T05:47:53.522Z,15.75
2022-12-03T05:50:36.436Z,15.18
2022-12-03T05:53:25.827Z,15.95
2022-12-03T05:55:55.675Z,16.17
2022-12-03T05:58:24.965Z,16.50
2022-12-03T06:00:54.001Z,21.13
2022-12-03T06:03:24.637Z,15.70
2022-12-03T06:05:54.333Z,13.38
2022-12-03T06:08:23.353Z,24.67
2022-12-03T06:10:53.081Z,18.55
2022-12-03T06:13:22.111Z,16.25
2022-12-03T06:15:51.297Z,24.63
2022-12-03T06:18:20.536Z,14.85
2022-12-03T06:20:51.416Z,17.08
2022-12-03T06:23:20.426Z,14.00
2022-12-03T06:25:49.611Z,15.05
2022-12-03T06:28:18.760Z,18.13
2022-12-03T06:30:47.906Z,18.42
2022-12-03T06:33:17.025Z,15.35
2022-12-03T06:35:46.392Z,20.10
2022-12-03T06:38:17.098Z,24.13
2022-12-03T06:40:46.271Z,17.38
2022-12-03T06:43:15.591Z,18.65
2022-12-03T06:45:47.898Z,27.35
2022-12-03T06:48:17.170Z,31.90
2022-12-03T06:50:46.303Z,23.58
2022-12-03T06:53:16.591Z,27.90
2022-12-03T06:55:45.770Z,22.20
2022-12-03T06:58:14.820Z,30.27
2022-12-03T07:00:43.789Z,21.63
2022-12-03T07:03:12.960Z,27.08
2022-12-03T07:05:42.091Z,28.60
2022-12-03T07:08:11.161Z,22.83
2022-12-03T07:10:41.678Z,31.98
2022-12-03T07:13:10.877Z,29.50
2022-12-03T07:15:39.986Z,25.75
2022-12-03T07:18:09.037Z,22.90
2022-12-03T07:20:38.500Z,24.65
2022-12-03T07:23:07.909Z,31.90
2022-12-03T07:25:37.089Z,28.98
2022-12-03T07:28:07.581Z,31.70
2022-12-03T07:30:36.534Z,30.58
2022-12-03T07:33:05.514Z,28.88
2022-12-03T07:35:34.716Z,17.25
2022-12-03T07:38:03.680Z,34.88
2022-12-03T07:40:32.645Z,28.77
2022-12-03T07:43:01.773Z,26.48
2022-12-03T07:45:32.260Z,29.65
2022-12-03T07:48:01.419Z,21.98
2022-12-03T07:50:31.153Z,28.90
2022-12-03T07:53:00.238Z,22.88
2022-12-03T07:55:29.299Z,27.23
2022-12-03T07:57:58.498Z,31.10
2022-12-03T08:00:27.884Z,26.65
2022-12-03T08:02:58.177Z,28.23
2022-12-03T08:05:29.610Z,26.08
2022-12-03T08:07:58.710Z,30.73
2022-12-03T08:10:28.194Z,23.55
2022-12-03T08:12:59.550Z,23.05
2022-12-03T08:15:38.555Z,30.38
2022-12-03T08:18:16.103Z,23.55
2022-12-03T08:20:46.715Z,15.48
2022-12-03T08:23:17.959Z,22.52
2022-12-03T08:25:48.107Z,13.40
2022-12-03T08:28:20.086Z,23.50
2022-12-03T08:31:18.238Z,32.58
2022-12-03T08:33:50.191Z,22.55
2022-12-03T08:36:23.195Z,25.30
2022-12-03T08:38:54.674Z,25.52
2022-12-03T08:41:38.041Z,23.92
2022-12-03T08:44:19.678Z,26.02
2022-12-03T08:46:51.562Z,23.85
2022-12-03T08:49:23.796Z,22.05
2022-12-03T08:51:57.517Z,20.20
2022-12-03T08:54:27.285Z,33.88
2022-12-03T08:56:56.509Z,32.58
2022-12-03T08:59:29.606Z,21.20
2022-12-03T09:02:00.599Z,26.83
2022-12-03T09:04:37.445Z,22.67
2022-12-03T09:07:06.658Z,26.75
2022-12-03T09:09:35.813Z,28.02
2022-12-03T09:12:06.114Z,17.83
2022-12-03T09:14:35.160Z,24.63
2022-12-03T09:17:04.378Z,21.65
2022-12-03T09:19:34.807Z,18.27
2022-12-03T09:22:03.783Z,24.52
2022-12-03T09:24:32.836Z,24.48
2022-12-03T09:27:01.906Z,22.80
2022-12-03T09:29:30.985Z,31.52
2022-12-03T09:32:00.225Z,24.67
2022-12-03T09:34:29.530Z,29.48
2022-12-03T09:36:59.944Z,25.38
2022-12-03T09:39:28.972Z,29.75
2022-12-03T09:41:58.258Z,23.33
2022-12-03T09:44:29.997Z,26.00
2022-12-03T09:47:00.667Z,21.00
2022-12-03T09:49:32.043Z,25.38
2022-12-03T09:52:05.179Z,26.83
2022-12-03T09:54:37.716Z,30.77
2022-12-03T09:57:12.399Z,26.83
2022-12-03T09:59:41.397Z,24.73
2022-12-03T10:02:17.402Z,25.45
2022-12-03T10:04:46.910Z,20.35
2022-12-03T10:07:18.298Z,27.00
2022-12-03T10:09:47.547Z,23.27
2022-12-03T10:12:22.389Z,20.35
2022-12-03T10:14:52.517Z,26.67
2022-12-03T10:17:22.146Z,24.38
2022-12-03T10:19:51.466Z,28.25
2022-12-03T10:22:22.162Z,25.33
2022-12-03T10:25:07.006Z,27.52
2022-12-03T10:27:36.065Z,22.77
2022-12-03T10:30:15.220Z,25.27
2022-12-03T10:32:46.374Z,24.27
2022-12-03T10:35:17.420Z,24.48
2022-12-03T10:38:06.411Z,26.65
2022-12-03T10:40:37.162Z,23.05
2022-12-03T10:43:17.733Z,17.15
2022-12-03T10:45:48.068Z,20.42
2022-12-03T10:48:19.689Z,26.85
2022-12-03T10:50:53.639Z,16.85
2022-12-03T10:53:25.678Z,18.20
2022-12-03T10:55:59.492Z,23.50
2022-12-03T10:58:30.634Z,22.52
2022-12-03T11:01:03.524Z,15.88
2022-12-03T11:03:36.823Z,18.17
2022-12-03T11:06:06.629Z,20.70
2022-12-03T11:08:38.476Z,21.42
2022-12-03T11:11:09.641Z,18.65
2022-12-03T11:13:48.449Z,22.05
2022-12-03T11:16:51.718Z,19.33
2022-12-03T11:19:46.848Z,25.38
2022-12-03T11:22:28.337Z,19.85
2022-12-03T11:25:50.672Z,18.15
2022-12-03T11:28:55.049Z,17.20
2022-12-03T11:31:39.674Z,17.60
2022-12-03T11:34:50.165Z,18.60
2022-12-03T11:37:29.595Z,13.93
2022-12-03T11:40:26.546Z,18.25
2022-12-03T11:42:55.698Z,15.70
2022-12-03T11:45:32.278Z,16.85
2022-12-03T11:48:06.420Z,17.02
2022-12-03T11:50:40.328Z,18.87
2022-12-03T11:53:18.695Z,16.70
2022-12-03T11:55:52.434Z,16.80
2022-12-03T11:58:27.169Z,20.77
2022-12-03T12:01:00.410Z,15.77
2022-12-03T12:03:33.483Z,19.73
2022-12-03T12:06:05.129Z,17.30
2022-12-03T12:08:36.106Z,14.63
2022-12-03T12:11:16.829Z,14.95
2022-12-03T12:13:57.932Z,16.50
2022-12-03T12:16:50.682Z,20.08
2022-12-03T12:19:52.729Z,15.85
2022-12-03T12:22:40.868Z,19.95
2022-12-03T12:25:38.703Z,18.77
2022-12-03T12:28:08.650Z,14.60
2022-12-03T12:30:40.196Z,19.52
2022-12-03T12:33:19.251Z,15.63
2022-12-03T12:35:48.367Z,16.08
2022-12-03T12:38:19.535Z,15.82
2022-12-03T12:40:51.013Z,15.82
2022-12-03T12:43:28.368Z,12.82
2022-12-03T12:46:18.828Z,18.00
2022-12-03T12:48:55.224Z,14.77
2022-12-03T12:51:27.739Z,16.40
2022-12-03T12:53:59.229Z,14.27
2022-12-03T12:56:31.289Z,15.73
2022-12-03T12:59:12.471Z,13.40
2022-12-03T13:01:42.957Z,11.15
2022-12-03T13:04:15.335Z,16.23
2022-12-03T13:06:44.926Z,13.15
2022-12-03T13:09:17.254Z,17.17
2022-12-03T13:11:47.580Z,13.93
2022-12-03T13:14:20.465Z,10.95
2022-12-03T13:16:50.708Z,12.32
2022-12-03T13:19:24.472Z,14.40
2022-12-03T13:21:55.056Z,13.00
2022-12-03T13:24:35.660Z,12.68
2022-12-03T13:27:23.009Z,15.40
2022-12-03T13:29:56.297Z,16.23
2022-12-03T13:32:31.089Z,14.02
2022-12-03T13:35:06.609Z,13.48
2022-12-03T13:37:35.709Z,12.68
2022-12-03T13:40:14.448Z,11.85
2022-12-03T13:42:45.252Z,16.25
2022-12-03T13:45:31.990Z,13.15
2022-12-03T13:48:03.461Z,12.50
2022-12-03T13:50:37.643Z,13.45
2022-12-03T13:53:16.581Z,12.82
2022-12-03T13:55:47.252Z,11.75
2022-12-03T13:58:16.342Z,14.55
2022-12-03T14:00:45.439Z,14.15
2022-12-03T14:03:14.694Z,14.27
2022-12-03T14:05:45.150Z,18.35
2022-12-03T14:08:14.354Z,13.07
2022-12-03T14:10:43.522Z,12.60
2022-12-03T14:13:12.679Z,11.35
2022-12-03T14:15:41.822Z,12.68
2022-12-03T14:18:12.144Z,12.98
2022-12-03T14:20:41.164Z,13.75
2022-12-03T14:23:11.609Z,18.23
2022-12-03T14:25:40.614Z,15.45
2022-12-03T14:28:09.919Z,16.20
2022-12-03T14:30:38.951Z,14.02
2022-12-03T14:33:08.077Z,12.65
2022-12-03T14:35:37.980Z,13.63
2022-12-03T14:38:06.998Z,13.52
2022-12-03T14:40:37.528Z,13.50
2022-12-03T14:43:06.551Z,14.88
2022-12-03T14:45:35.563Z,13.73
2022-12-03T14:48:06.275Z,13.88
2022-12-03T14:50:35.545Z,18.77
2022-12-03T14:53:04.723Z,14.75
2022-12-03T14:55:34.188Z,15.73
2022-12-03T14:58:04.894Z,18.52
2022-12-03T15:00:33.977Z,13.23
2022-12-03T15:03:03.163Z,16.50
2022-12-03T15:05:32.451Z,16.17
2022-12-03T15:08:01.645Z,17.00
2022-12-03T15:10:30.978Z,18.52
2022-12-03T15:13:00.162Z,12.88
2022-12-03T15:15:30.783Z,14.57
2022-12-03T15:18:00.225Z,16.40
2022-12-03T15:20:30.072Z,14.20
2022-12-03T15:22:59.507Z,15.95
2022-12-03T15:25:28.855Z,15.98
2022-12-03T15:27:58.033Z,16.92
2022-12-03T15:30:27.709Z,17.42
2022-12-03T15:32:58.217Z,21.90
2022-12-03T15:35:27.275Z,17.77
2022-12-03T15:38:00.044Z,23.10
2022-12-03T15:40:30.063Z,25.40
2022-12-03T15:42:59.286Z,25.60
2022-12-03T15:45:28.420Z,19.88
2022-12-03T15:47:59.163Z,25.42
2022-12-03T15:50:28.689Z,16.95
2022-12-03T15:52:58.504Z,21.58
2022-12-03T15:55:28.127Z,19.13
2022-12-03T15:58:01.425Z,18.77
2022-12-03T16:00:30.623Z,16.13
2022-12-03T16:03:01.069Z,16.92
2022-12-03T16:05:30.235Z,14.77
2022-12-03T16:07:59.323Z,14.60
2022-12-03T16:10:28.452Z,18.13
2022-12-03T16:13:01.794Z,17.92
2022-12-03T16:15:31.909Z,19.25
2022-12-03T16:18:03.063Z,17.25
2022-12-03T16:20:32.445Z,10.68
2022-12-03T16:23:01.512Z,11.40
2022-12-03T16:25:30.719Z,9.77
2022-12-03T16:28:00.048Z,8.95
2022-12-03T16:30:29.419Z,7.00
2022-12-03T16:32:59.162Z,14.43
2022-12-03T16:35:29.865Z,12.50
2022-12-03T16:37:59.248Z,8.68
2022-12-03T16:40:29.029Z,8.65
2022-12-03T16:42:59.180Z,12.20
2022-12-03T16:45:51.610Z,10.40
2022-12-03T16:48:20.911Z,9.88
2022-12-03T16:50:51.524Z,10.43
2022-12-03T16:53:23.519Z,9.32
2022-12-03T16:55:52.790Z,11.25
2022-12-03T16:58:23.500Z,10.52
2022-12-03T17:00:54.461Z,7.88
2022-12-03T17:03:28.966Z,9.23
2022-12-03T17:06:04.436Z,11.60
2022-12-03T17:08:33.699Z,10.60
2022-12-03T17:11:05.316Z,10.38
2022-12-03T17:13:34.525Z,9.20
2022-12-03T17:16:13.068Z,13.48
2022-12-03T17:18:42.653Z,10.45
2022-12-03T17:21:13.379Z,10.57
2022-12-03T17:23:42.496Z,8.02
2022-12-03T17:26:11.707Z,12.05
2022-12-03T17:28:40.961Z,12.88
2022-12-03T17:31:10.453Z,11.15
2022-12-03T17:33:40.438Z,9.88
2022-12-03T17:36:10.219Z,11.85
2022-12-03T17:38:40.818Z,8.65
2022-12-03T17:41:09.937Z,10.18
2022-12-03T17:43:39.538Z,11.23
2022-12-03T17:46:08.959Z,9.27
2022-12-03T17:48:38.182Z,9.02
2022-12-03T17:51:07.664Z,8.32
2022-12-03T17:53:36.735Z,10.73
2022-12-03T17:56:07.875Z,8.75
2022-12-03T17:58:37.148Z,9.13
2022-12-03T18:01:08.719Z,6.97
2022-12-03T18:03:37.981Z,9.85
2022-12-03T18:06:07.786Z,11.02
2022-12-03T18:08:36.945Z,10.77
2022-12-03T18:11:07.599Z,10.63
2022-12-03T18:13:36.610Z,10.73
2022-12-03T18:16:06.455Z,9.80
2022-12-03T18:18:35.628Z,8.40
2022-12-03T18:21:04.931Z,9.82
2022-12-03T18:23:34.089Z,9.98
2022-12-03T18:26:03.958Z,10.65
2022-12-03T18:28:34.549Z,11.07
2022-12-03T18:31:03.764Z,8.63
2022-12-03T18:33:32.790Z,12.40
2022-12-03T18:36:02.002Z,10.10
2022-12-03T18:38:34.419Z,12.82
2022-12-03T18:41:03.620Z,9.73
2022-12-03T18:43:34.550Z,10.63
2022-12-03T18:46:05.574Z,12.88
2022-12-03T18:48:34.867Z,7.90
2022-12-03T18:51:03.894Z,12.57
2022-12-03T18:53:33.034Z,9.88
2022-12-03T18:56:02.113Z,10.25
2022-12-03T18:58:31.396Z,10.13
2022-12-03T19:01:02.905Z,13.60
2022-12-03T19:03:32.570Z,14.10
2022-12-03T19:06:01.866Z,7.72
2022-12-03T19:08:30.914Z,10.32
2022-12-03T19:11:01.574Z,10.23
2022-12-03T19:13:30.723Z,13.98
2022-12-03T19:16:05.220Z,10.68
2022-12-03T19:18:34.537Z,13.95
2022-12-03T19:21:08.518Z,12.98
2022-12-03T19:23:37.989Z,16.05
2022-12-03T19:26:08.891Z,8.75
2022-12-03T19:28:38.142Z,15.50
2022-12-03T19:31:12.226Z,11.50
2022-12-03T19:33:42.488Z,11.40
2022-12-03T19:36:23.266Z,15.90
2022-12-03T19:38:56.969Z,11.38
2022-12-03T19:41:28.157Z,10.05
2022-12-03T19:43:58.192Z,13.23
2022-12-03T19:46:30.505Z,12.50
2022-12-03T19:48:59.711Z,15.63
2022-12-03T19:51:36.362Z,11.45
2022-12-03T19:54:06.903Z,12.68
2022-12-03T19:56:36.206Z,13.15
2022-12-03T19:59:05.536Z,11.05
2022-12-03T20:01:40.369Z,12.20
2022-12-03T20:04:09.854Z,10.85
2022-12-03T20:06:39.620Z,7.22
2022-12-03T20:09:12.069Z,10.88
2022-12-03T20:11:44.588Z,13.45
2022-12-03T20:14:15.855Z,11.32
2022-12-03T20:16:46.836Z,12.13
2022-12-03T20:19:18.951Z,13.68
2022-12-03T20:21:48.099Z,13.80
2022-12-03T20:24:19.387Z,14.32
2022-12-03T20:26:48.460Z,16.58
2022-12-03T20:29:18.067Z,9.75
2022-12-03T20:31:48.548Z,13.20
2022-12-03T20:34:17.731Z,12.45
2022-12-03T20:36:46.925Z,11.60
2022-12-03T20:39:15.919Z,13.30
2022-12-03T20:41:44.866Z,11.27
2022-12-03T20:44:14.071Z,16.55
2022-12-03T20:46:43.084Z,14.98
2022-12-03T20:49:13.595Z,11.00
2022-12-03T20:51:43.083Z,12.23
2022-12-03T20:54:12.095Z,12.07
2022-12-03T20:56:42.158Z,9.85
2022-12-03T20:59:13.490Z,11.85
2022-12-03T21:01:43.402Z,13.90
2022-12-03T21:04:16.166Z,10.98
2022-12-03T21:06:46.330Z,8.02
2022-12-03T21:09:15.342Z,10.90
2022-12-03T21:11:45.411Z,12.65
2022-12-03T21:14:14.375Z,12.38
2022-12-03T21:19:39.549Z,15.50
2022-12-03T21:22:08.934Z,13.48
2022-12-03T21:24:37.852Z,11.35
2022-12-03T21:27:06.850Z,9.52
2022-12-03T21:29:35.793Z,9.93
2022-12-03T21:32:04.947Z,10.68
2022-12-03T21:34:36.413Z,12.43
2022-12-03T21:37:07.315Z,10.10
2022-12-03T21:39:36.459Z,13.00
2022-12-03T21:42:22.372Z,12.25
2022-12-03T21:44:54.835Z,11.23
2022-12-03T21:47:23.919Z,5.32
2022-12-03T21:49:53.297Z,10.68
2022-12-03T21:52:24.002Z,9.35
2022-12-03T21:54:53.815Z,10.20
2022-12-03T21:57:23.021Z,9.90
2022-12-03T21:59:51.993Z,9.25
2022-12-03T22:02:21.123Z,14.60
2022-12-03T22:04:51.935Z,13.38
2022-12-03T22:07:21.219Z,10.20
2022-12-03T22:09:51.769Z,11.15
2022-12-03T22:12:20.893Z,10.98
2022-12-03T22:14:49.907Z,14.00
2022-12-03T22:17:18.848Z,14.40
2022-12-03T22:19:47.980Z,13.77
2022-12-03T22:22:17.031Z,11.05
2022-12-03T22:24:46.914Z,10.63
2022-12-03T22:27:17.336Z,12.05
2022-12-03T22:29:46.337Z,16.48
2022-12-03T22:32:15.665Z,10.82
2022-12-03T22:34:45.037Z,15.40
2022-12-03T22:37:14.061Z,9.30
2022-12-03T22:39:43.055Z,10.63
2022-12-03T22:42:12.193Z,13.45
2022-12-03T22:44:42.654Z,12.45
2022-12-03T22:47:11.601Z,8.80
2022-12-03T22:49:40.569Z,16.15
2022-12-03T22:52:10.039Z,9.73
2022-12-03T22:54:38.995Z,10.40
2022-12-03T22:57:07.942Z,11.88
2022-12-03T22:59:36.912Z,11.82
2022-12-03T23:02:07.302Z,8.75
2022-12-03T23:04:36.386Z,8.35
2022-12-03T23:07:07.068Z,16.98
2022-12-03T23:09:36.048Z,18.38
2022-12-03T23:12:05.247Z,13.30
2022-12-03T23:14:34.270Z,16.02
2022-12-03T23:17:03.213Z,14.07
2022-12-03T23:19:33.570Z,14.90
2022-12-03T23:22:02.537Z,11.57
2022-12-03T23:24:31.884Z,14.20
2022-12-03T23:27:00.925Z,13.13
2022-12-03T23:29:29.885Z,11.88
2022-12-03T23:31:58.955Z,10.35
2022-12-03T23:34:28.285Z,15.00
2022-12-03T23:36:58.921Z,12.52
2022-12-03T23:39:27.957Z,14.27
2022-12-03T23:41:56.889Z,9.82
2022-12-03T23:44:25.840Z,16.33
2022-12-03T23:46:54.853Z,16.58
2022-12-03T23:49:23.782Z,14.05
2022-12-03T23:51:52.769Z,8.55
2022-12-03T23:54:23.327Z,15.55
2022-12-03T23:56:52.301Z,9.90
2022-12-03T23:59:21.429Z,12.57
